aviador You're here:

LETU Decoded Metar

in
Report Time2018-01-22 11:30:00
UTC Time2018-01-22 11:54:32
Flight Rules vfr VFR
Wind300° at 15 kt
W.Rank300° ranks 2
Current wind is above 300° avg. (9.4)
Visibility9999 m
Phenomena:N/A
Clouds:N/A
Expected CloudBase > 3,200 ft AGL from Temp-Dew spread
CeilingNone
Temp14°C
Dew Point06°C (59% RH)
AAT7.7°C
QNH1029 hPa
Raw Report
METAR LETU 221130Z AUTO 30015KT 9999 NCD 14/06 Q1029=####018000200####
SARE20 FMEE 221130

Extra information for LETU:More info

Social comments